Time;durP1;ratioP1;P1;durP2;ratioP2;P2;SDS_P1;SDS_P2;PMS_P1;PMS_P2;Temp;Humidity;BMP_temperature;BMP_pressure;BME280_temperature;BME280_humidity;BME280_pressure;Samples;Min_cycle;Max_cycle;Signal;HPM_P1;HPM_P2
2023/10/22 00:01:35;;;;;;;5.82;1.75;;;;;;;12.99;72.97;100108.13;7398396;19;20379;-63
2023/10/22 00:04:03;;;;;;;4.78;1.40;;;;;;;12.96;72.80;100103.09;7398378;19;20098;-63
2023/10/22 00:06:31;;;;;;;3.20;1.30;;;;;;;12.89;72.66;100105.47;7398393;19;20022;-63
2023/10/22 00:08:59;;;;;;;3.22;1.20;;;;;;;12.93;72.15;100109.56;7393740;19;20032;-63
2023/10/22 00:11:26;;;;;;;4.43;1.00;;;;;;;12.99;72.03;100113.44;7397946;19;20022;-64
2023/10/22 00:13:54;;;;;;;4.55;1.17;;;;;;;12.98;72.01;100116.25;7397816;19;20015;-64
2023/10/22 00:16:21;;;;;;;4.70;1.52;;;;;;;13.02;71.91;100120.28;7397340;19;20383;-64
2023/10/22 00:18:50;;;;;;;3.40;1.20;;;;;;;12.96;72.20;100120.84;7396618;19;20426;-64
2023/10/22 00:21:17;;;;;;;4.25;1.13;;;;;;;12.96;72.34;100121.69;7396441;19;20046;-64
2023/10/22 00:23:45;;;;;;;4.22;1.10;;;;;;;12.95;72.64;100121.84;7397847;19;20018;-64
2023/10/22 00:26:13;;;;;;;2.78;1.00;;;;;;;12.83;73.45;100123.84;7397256;19;20543;-64
2023/10/22 00:28:41;;;;;;;4.90;1.30;;;;;;;12.84;73.10;100122.84;7396064;19;20018;-64
2023/10/22 00:31:08;;;;;;;2.80;1.02;;;;;;;12.79;73.45;100120.63;7396335;19;20023;-64
2023/10/22 00:33:36;;;;;;;6.35;1.52;;;;;;;12.70;73.88;100126.78;7396873;19;20488;-64
2023/10/22 00:36:04;;;;;;;4.38;1.27;;;;;;;12.67;74.12;100127.09;7397256;19;20022;-64
2023/10/22 00:38:32;;;;;;;3.25;1.40;;;;;;;12.63;74.05;100125.66;7396505;19;20478;-64
2023/10/22 00:40:59;;;;;;;5.57;1.40;;;;;;;12.62;74.32;100124.81;7395760;19;20018;-64
2023/10/22 00:43:27;;;;;;;3.20;1.00;;;;;;;12.64;74.07;100127.38;7397216;19;20026;-70
2023/10/22 00:45:55;;;;;;;4.55;1.20;;;;;;;12.64;74.13;100119.41;7396659;19;20089;-71
2023/10/22 00:48:25;;;;;;;6.32;1.52;;;;;;;12.52;74.78;100115.22;7396274;19;20022;-71
2023/10/22 00:50:53;;;;;;;3.45;1.20;;;;;;;12.53;74.79;100127.50;7395596;19;20011;-71
2023/10/22 00:53:23;;;;;;;7.68;1.40;;;;;;;12.51;74.50;100129.47;7396458;19;20025;-69
2023/10/22 00:55:51;;;;;;;3.90;1.35;;;;;;;12.48;74.72;100132.38;7396336;19;20546;-69
2023/10/22 00:58:20;;;;;;;4.28;1.10;;;;;;;12.40;74.84;100133.09;7393908;19;20099;-69
2023/10/22 01:00:48;;;;;;;5.88;1.38;;;;;;;12.40;75.02;100130.44;7393929;19;20018;-67
2023/10/22 01:03:17;;;;;;;5.47;1.27;;;;;;;12.40;74.81;100131.31;7396009;19;20389;-65
2023/10/22 01:05:45;;;;;;;2.28;1.00;;;;;;;12.43;74.36;100123.03;7396680;19;20023;-65
2023/10/22 01:08:13;;;;;;;4.35;1.45;;;;;;;12.35;74.74;100128.22;7395309;19;20023;-65
2023/10/22 01:10:40;;;;;;;4.22;1.20;;;;;;;12.33;74.55;100119.56;7394687;19;20037;-66
2023/10/22 01:13:08;;;;;;;6.15;1.40;;;;;;;12.33;74.71;100124.03;7396636;19;20087;-66
2023/10/22 01:15:36;;;;;;;4.82;1.27;;;;;;;12.30;74.55;100116.34;7396269;19;20018;-66
2023/10/22 01:18:04;;;;;;;4.07;1.13;;;;;;;12.30;74.85;100124.31;7392531;19;20018;-66
2023/10/22 01:20:32;;;;;;;3.95;1.20;;;;;;;12.26;74.66;100121.09;7392993;19;20037;-69
2023/10/22 01:23:01;;;;;;;4.15;1.40;;;;;;;12.23;75.00;100128.50;7395120;19;20353;-70
2023/10/22 01:25:28;;;;;;;4.97;1.23;;;;;;;12.12;75.73;100122.31;7396072;19;20486;-65
2023/10/22 01:27:59;;;;;;;6.47;1.50;;;;;;;12.11;75.78;100133.94;7393428;19;20015;-64
2023/10/22 01:30:27;;;;;;;4.93;1.23;;;;;;;12.05;75.86;100133.63;7393151;19;20021;-66
2023/10/22 01:32:54;;;;;;;6.30;1.48;;;;;;;11.92;76.12;100128.59;7395677;19;20507;-66
2023/10/22 01:35:22;;;;;;;4.15;1.40;;;;;;;11.93;75.78;100128.44;7393986;19;20027;-67
2023/10/22 01:37:50;;;;;;;4.78;1.23;;;;;;;11.93;75.84;100131.09;7393818;19;20480;-69
2023/10/22 01:40:18;;;;;;;4.68;1.40;;;;;;;11.94;75.86;100124.84;7393504;19;20018;-69
2023/10/22 01:42:46;;;;;;;5.97;1.20;;;;;;;11.84;75.69;100129.28;7395546;19;20019;-69
2023/10/22 01:45:14;;;;;;;5.70;1.42;;;;;;;11.84;76.00;100131.94;7394605;19;20019;-69
2023/10/22 01:47:41;;;;;;;5.43;1.50;;;;;;;11.89;75.60;100124.41;7393629;19;20479;-69
2023/10/22 01:50:09;;;;;;;5.13;1.20;;;;;;;11.92;75.55;100126.78;7392675;19;20031;-69
2023/10/22 01:52:36;;;;;;;3.75;1.35;;;;;;;11.98;75.00;100124.53;7395286;19;20018;-69
2023/10/22 01:55:05;;;;;;;3.22;1.25;;;;;;;11.95;75.23;100131.00;7396135;19;20491;-69
2023/10/22 01:57:35;;;;;;;4.38;1.30;;;;;;;11.97;75.85;100128.19;7394119;19;20491;-69
2023/10/22 02:00:04;;;;;;;3.42;1.20;;;;;;;11.93;75.72;100133.75;7391156;19;20042;-69
2023/10/22 02:02:32;;;;;;;4.93;1.08;;;;;;;11.97;75.16;100130.84;7395145;19;20018;-69
2023/10/22 02:05:00;;;;;;;5.63;1.50;;;;;;;12.02;75.30;100124.16;7394831;19;20018;-69
2023/10/22 02:07:29;;;;;;;5.20;1.27;;;;;;;12.08;75.17;100133.38;7394334;19;20503;-70
2023/10/22 02:09:56;;;;;;;5.10;1.33;;;;;;;12.03;75.57;100130.31;7390197;19;20018;-70
2023/10/22 02:12:28;;;;;;;6.18;1.30;;;;;;;12.13;74.98;100120.50;7394153;19;20508;-70
2023/10/22 02:14:56;;;;;;;3.25;1.30;;;;;;;12.10;74.57;100121.66;7394114;19;20393;-71
2023/10/22 02:17:24;;;;;;;4.72;1.20;;;;;;;12.06;74.70;100127.38;7391621;19;20039;-71
2023/10/22 02:19:51;;;;;;;4.95;1.15;;;;;;;12.00;74.85;100126.09;7389473;19;20030;-72
2023/10/22 02:22:19;;;;;;;5.32;1.00;;;;;;;12.01;74.70;100121.63;7391090;19;20011;-72
2023/10/22 02:24:46;;;;;;;5.03;1.10;;;;;;;12.05;74.88;100123.03;7393502;19;20019;-71
2023/10/22 02:27:14;;;;;;;5.10;1.63;;;;;;;12.06;74.57;100117.59;7392247;19;20018;-72
2023/10/22 02:29:42;;;;;;;8.55;1.60;;;;;;;12.18;74.29;100111.16;7389571;19;20031;-72
2023/10/22 02:32:10;;;;;;;5.80;1.35;;;;;;;12.16;74.19;100121.06;7393655;19;20046;-73
2023/10/22 02:34:37;;;;;;;5.85;1.40;;;;;;;12.16;74.03;100118.41;7393595;19;20361;-72
2023/10/22 02:37:05;;;;;;;5.55;1.63;;;;;;;12.20;74.10;100118.97;7393010;19;20094;-67
2023/10/22 02:39:33;;;;;;;4.28;1.23;;;;;;;12.18;73.85;100121.78;7391502;19;20025;-67
2023/10/22 02:42:00;;;;;;;5.32;1.25;;;;;;;12.11;74.16;100128.63;7391381;19;20495;-65
2023/10/22 02:44:28;;;;;;;5.60;1.10;;;;;;;12.19;73.82;100122.63;7393368;19;20026;-64
2023/10/22 02:46:58;;;;;;;6.50;1.10;;;;;;;12.20;73.88;100121.63;7392887;19;20368;-64
2023/10/22 02:49:26;;;;;;;4.20;0.93;;;;;;;12.19;73.63;100127.94;7390607;19;20031;-64
2023/10/22 02:51:54;;;;;;;3.80;1.00;;;;;;;12.17;73.58;100137.84;7392778;19;20035;-64
2023/10/22 02:54:21;;;;;;;5.60;1.20;;;;;;;12.18;73.68;100132.41;7392705;19;20018;-64
2023/10/22 02:56:49;;;;;;;6.38;1.15;;;;;;;12.28;73.25;100131.56;7392320;19;20034;-72
2023/10/22 02:59:17;;;;;;;3.15;0.98;;;;;;;12.25;73.36;100131.84;7388644;19;20034;-62
2023/10/22 03:01:44;;;;;;;5.00;1.30;;;;;;;12.18;73.64;100127.09;7391112;19;20018;-62
2023/10/22 03:04:11;;;;;;;4.10;1.20;;;;;;;12.20;73.34;100127.78;7392542;19;20042;-61
2023/10/22 03:06:39;;;;;;;4.95;1.08;;;;;;;12.17;73.73;100121.91;7392804;19;20026;-63
2023/10/22 03:09:07;;;;;;;2.47;0.90;;;;;;;12.12;73.80;100121.50;7390858;19;20704;-63
2023/10/22 03:11:36;;;;;;;4.03;1.00;;;;;;;12.14;73.31;100120.38;7393112;19;20010;-68
2023/10/22 03:14:05;;;;;;;3.47;1.00;;;;;;;12.14;73.01;100120.38;7392993;19;20015;-69
2023/10/22 03:16:32;;;;;;;3.85;1.10;;;;;;;12.18;73.15;100111.16;7392630;19;20351;-69
2023/10/22 03:19:00;;;;;;;5.03;1.38;;;;;;;12.18;73.17;100110.34;7389625;19;20014;-69
2023/10/22 03:21:35;;;;;;;4.53;1.00;;;;;;;12.26;72.58;100115.78;7391936;19;20429;-67
2023/10/22 03:24:04;;;;;;;3.78;0.98;;;;;;;12.24;73.10;100119.53;7391917;19;20034;-66
2023/10/22 03:26:31;;;;;;;3.20;0.90;;;;;;;12.29;72.88;100118.16;7392391;19;20038;-65
2023/10/22 03:28:59;;;;;;;3.97;1.08;;;;;;;12.28;72.76;100118.28;7389317;19;20014;-66
2023/10/22 03:31:27;;;;;;;3.70;0.95;;;;;;;12.12;73.38;100116.19;7391317;19;20361;-65
2023/10/22 03:33:54;;;;;;;2.92;1.02;;;;;;;12.18;73.05;100127.09;7393864;19;20026;-65
2023/10/22 03:36:22;;;;;;;5.15;1.15;;;;;;;12.24;72.82;100123.03;7399708;19;20760;-65
2023/10/22 03:38:49;;;;;;;4.60;1.08;;;;;;;12.28;72.66;100123.59;7396625;19;20345;-65
2023/10/22 03:41:17;;;;;;;5.85;1.30;;;;;;;12.34;72.31;100131.84;7396330;19;20046;-65
2023/10/22 03:43:45;;;;;;;5.95;1.05;;;;;;;12.31;72.47;100132.13;7399231;19;20052;-65
2023/10/22 03:46:12;;;;;;;4.55;1.08;;;;;;;12.28;72.44;100137.69;7398738;19;20035;-65
2023/10/22 03:48:40;;;;;;;3.58;1.10;;;;;;;12.22;72.81;100132.97;7397199;19;20373;-65
2023/10/22 03:51:08;;;;;;;3.08;0.80;;;;;;;12.22;72.76;100135.63;7397463;19;20530;-65
2023/10/22 03:53:39;;;;;;;6.35;1.30;;;;;;;12.22;72.67;100142.75;7398937;19;20025;-65
2023/10/22 03:56:07;;;;;;;3.92;1.30;;;;;;;12.20;72.58;100145.53;7398398;19;20508;-65
2023/10/22 03:58:35;;;;;;;5.50;1.27;;;;;;;12.25;72.46;100150.41;7397183;19;20038;-67
2023/10/22 04:01:02;;;;;;;4.30;1.00;;;;;;;12.20;72.81;100141.06;7397155;19;20019;-67
2023/10/22 04:03:30;;;;;;;5.60;1.90;;;;;;;12.22;72.91;100140.94;7398797;19;20100;-66
2023/10/22 04:05:57;;;;;;;4.57;1.20;;;;;;;12.26;72.90;100144.97;7398386;19;20018;-66
2023/10/22 04:08:26;;;;;;;3.03;0.90;;;;;;;12.18;72.90;100150.16;7397301;19;20050;-66
2023/10/22 04:10:53;;;;;;;5.68;1.30;;;;;;;12.10;73.17;100150.00;7397185;19;20606;-68
2023/10/22 04:13:22;;;;;;;4.80;1.10;;;;;;;12.12;73.06;100153.34;7398413;19;20359;-67
2023/10/22 04:15:51;;;;;;;3.42;1.13;;;;;;;12.11;73.44;100151.69;7396546;19;20029;-67
2023/10/22 04:18:19;;;;;;;5.35;1.02;;;;;;;12.12;73.32;100153.34;7396931;19;20032;-67
2023/10/22 04:20:47;;;;;;;3.30;1.00;;;;;;;12.12;73.10;100146.22;7397009;19;20017;-68
2023/10/22 04:23:15;;;;;;;5.85;1.30;;;;;;;12.07;73.41;100155.59;7398598;19;20405;-70
2023/10/22 04:25:44;;;;;;;4.93;1.35;;;;;;;12.06;73.17;100149.44;7397801;19;20039;-69
2023/10/22 04:28:13;;;;;;;7.35;1.45;;;;;;;12.02;73.31;100160.44;7397699;19;20421;-68
2023/10/22 04:30:45;;;;;;;3.33;1.10;;;;;;;12.01;73.58;100156.13;7397765;19;20014;-69
2023/10/22 04:33:13;;;;;;;5.50;1.20;;;;;;;11.96;73.70;100161.84;7398719;19;20365;-69
2023/10/22 04:35:41;;;;;;;3.60;1.00;;;;;;;12.01;73.96;100156.97;7398601;19;20038;-69
2023/10/22 04:38:09;;;;;;;3.90;1.00;;;;;;;12.01;74.13;100161.44;7397324;19;20028;-70
2023/10/22 04:40:36;;;;;;;4.15;1.15;;;;;;;12.00;73.93;100157.94;7396355;19;20025;-70
2023/10/22 04:43:04;;;;;;;4.60;1.20;;;;;;;12.05;73.70;100152.22;7398246;19;20023;-67
2023/10/22 04:45:31;;;;;;;5.15;1.08;;;;;;;12.11;73.38;100155.16;7399451;19;20019;-70
2023/10/22 04:47:59;;;;;;;4.10;1.20;;;;;;;12.09;73.14;100156.28;7397474;19;20031;-66
2023/10/22 04:50:29;;;;;;;5.57;1.10;;;;;;;12.15;73.27;100153.91;7395916;19;20036;-67
2023/10/22 04:52:57;;;;;;;4.70;1.20;;;;;;;12.14;72.95;100157.56;7396956;19;20010;-66
2023/10/22 04:55:25;;;;;;;3.97;1.13;;;;;;;12.12;73.02;100148.03;7396262;19;20090;-66
2023/10/22 04:57:52;;;;;;;5.72;1.30;;;;;;;12.15;72.83;100156.56;7390020;19;20015;-67
2023/10/22 05:00:20;;;;;;;5.53;0.90;;;;;;;12.16;72.97;100150.28;7395388;19;20018;-67
2023/10/22 05:02:48;;;;;;;5.95;1.20;;;;;;;12.16;73.17;100158.22;7396157;19;20094;-66
2023/10/22 05:05:16;;;;;;;4.47;0.95;;;;;;;12.17;73.47;100161.72;7396127;19;20022;-66
2023/10/22 05:07:44;;;;;;;5.05;1.10;;;;;;;12.18;73.13;100163.44;7396379;19;20022;-67
2023/10/22 05:10:12;;;;;;;5.63;1.40;;;;;;;12.21;73.03;100157.84;7394572;19;20014;-64
2023/10/22 05:12:39;;;;;;;4.80;1.30;;;;;;;12.28;72.72;100160.75;7393605;19;20011;-64
2023/10/22 05:15:08;;;;;;;4.15;1.10;;;;;;;12.34;72.63;100162.88;7395194;19;20039;-64
2023/10/22 05:17:35;;;;;;;6.03;1.10;;;;;;;12.35;72.72;100169.84;7395550;19;20046;-64
2023/10/22 05:20:04;;;;;;;3.72;1.10;;;;;;;12.38;72.50;100164.28;7391948;19;20014;-64
2023/10/22 05:22:32;;;;;;;3.67;1.10;;;;;;;12.41;72.43;100171.97;7395397;19;20014;-65
2023/10/22 05:25:00;;;;;;;5.97;1.05;;;;;;;12.43;72.26;100175.31;7395864;19;20017;-65
2023/10/22 05:27:28;;;;;;;4.05;1.10;;;;;;;12.34;72.49;100178.81;7395392;19;20555;-65
2023/10/22 05:29:56;;;;;;;5.30;0.98;;;;;;;12.31;72.66;100182.56;7392138;19;20010;-65
2023/10/22 05:32:24;;;;;;;3.05;0.85;;;;;;;12.30;73.10;100190.69;7393844;19;20019;-65
2023/10/22 05:34:51;;;;;;;3.70;1.20;;;;;;;12.38;72.48;100183.69;7395334;19;20486;-65
2023/10/22 05:37:19;;;;;;;3.65;0.95;;;;;;;12.44;72.58;100190.28;7394417;19;20123;-65
2023/10/22 05:39:46;;;;;;;7.68;1.10;;;;;;;12.44;72.74;100190.28;7390538;19;20018;-66
2023/10/22 05:42:14;;;;;;;6.13;1.00;;;;;;;12.47;72.71;100189.16;7395001;19;20017;-65
2023/10/22 05:44:41;;;;;;;4.35;1.30;;;;;;;12.53;72.78;100184.13;7394463;19;20018;-66
2023/10/22 05:47:09;;;;;;;3.53;1.15;;;;;;;12.52;72.62;100192.25;7395213;19;20487;-66
2023/10/22 05:49:37;;;;;;;3.28;1.17;;;;;;;12.50;72.88;100202.16;7392007;19;20014;-66
2023/10/22 05:52:04;;;;;;;3.78;1.00;;;;;;;12.57;72.54;100197.97;7394905;19;20046;-66
2023/10/22 05:54:32;;;;;;;2.90;1.00;;;;;;;12.61;72.22;100205.50;7394151;19;20022;-66
2023/10/22 05:57:00;;;;;;;3.50;1.02;;;;;;;12.51;72.57;100195.84;7392541;19;20039;-66
2023/10/22 05:59:28;;;;;;;3.75;1.10;;;;;;;12.56;72.59;100207.75;7391510;19;20014;-67
2023/10/22 06:01:56;;;;;;;4.57;1.27;;;;;;;12.57;72.63;100212.06;7394081;19;20064;-67
2023/10/22 06:04:23;;;;;;;4.15;1.10;;;;;;;12.60;72.50;100214.47;7393859;19;20022;-65
2023/10/22 06:06:51;;;;;;;4.22;1.15;;;;;;;12.69;72.00;100212.78;7394033;19;20345;-65
2023/10/22 06:09:19;;;;;;;6.10;1.50;;;;;;;12.74;72.08;100213.19;7390938;19;20363;-65
2023/10/22 06:11:46;;;;;;;5.47;1.00;;;;;;;12.79;71.86;100213.63;7393956;19;20050;-66
2023/10/22 06:14:14;;;;;;;5.53;1.30;;;;;;;12.80;71.80;100220.59;7393775;19;20023;-65
2023/10/22 06:16:44;;;;;;;4.40;1.10;;;;;;;12.81;71.96;100222.28;7392167;19;20102;-65
2023/10/22 06:19:13;;;;;;;4.43;1.15;;;;;;;12.80;72.24;100222.44;7390610;19;20361;-65
2023/10/22 06:21:40;;;;;;;3.95;1.00;;;;;;;12.84;72.19;100224.66;7391970;19;20051;-65
2023/10/22 06:24:08;;;;;;;3.95;1.20;;;;;;;12.85;72.09;100226.31;7393090;19;20018;-65
2023/10/22 06:26:35;;;;;;;3.72;1.00;;;;;;;12.88;72.32;100239.34;7393174;19;20081;-65
2023/10/22 06:29:03;;;;;;;4.13;0.90;;;;;;;13.01;72.04;100243.53;7391109;19;20059;-65
2023/10/22 06:31:30;;;;;;;2.67;0.90;;;;;;;13.02;71.89;100242.56;7393080;19;20082;-65
2023/10/22 06:34:01;;;;;;;5.25;1.10;;;;;;;13.07;71.82;100248.28;7393265;19;20026;-65
2023/10/22 06:36:29;;;;;;;3.30;0.82;;;;;;;13.04;71.88;100251.22;7393705;19;20018;-65
2023/10/22 06:38:56;;;;;;;5.68;1.00;;;;;;;13.11;71.82;100255.00;7391338;19;20615;-65
2023/10/22 06:41:25;;;;;;;3.35;0.90;;;;;;;13.11;71.83;100255.00;7391421;19;20445;-65
2023/10/22 06:43:53;;;;;;;3.20;0.90;;;;;;;13.09;71.96;100257.81;7390730;19;20075;-65
2023/10/22 06:46:23;;;;;;;5.22;1.23;;;;;;;13.14;72.15;100271.50;7389487;19;20031;-65
2023/10/22 06:48:51;;;;;;;3.67;1.08;;;;;;;13.16;72.11;100274.00;7390969;19;20018;-65
2023/10/22 06:51:19;;;;;;;3.88;1.08;;;;;;;13.19;71.77;100268.41;7391521;19;20069;-65
2023/10/22 06:53:46;;;;;;;3.83;1.20;;;;;;;13.23;71.86;100279.59;7392810;19;20074;-65
2023/10/22 06:56:16;;;;;;;4.75;1.20;;;;;;;13.17;72.19;100273.06;7392628;19;20025;-65
2023/10/22 06:58:44;;;;;;;2.53;0.90;;;;;;;13.29;72.00;100277.25;7391881;19;20015;-65
2023/10/22 07:01:13;;;;;;;3.55;0.80;;;;;;;13.33;71.57;100283.97;7391221;19;20093;-65
2023/10/22 07:03:43;;;;;;;3.60;1.00;;;;;;;13.34;71.60;100290.13;7392503;19;20018;-65
2023/10/22 07:06:12;;;;;;;5.50;2.35;;;;;;;13.30;72.29;100288.72;7394664;19;20734;-65
2023/10/22 07:08:40;;;;;;;6.60;2.20;;;;;;;13.33;72.37;100289.28;7391171;19;20043;-65
2023/10/22 07:11:08;;;;;;;4.13;1.13;;;;;;;13.41;71.80;100284.09;7388592;19;20022;-65
2023/10/22 07:13:36;;;;;;;2.22;0.80;;;;;;;13.46;71.69;100293.47;7390155;19;20014;-65
2023/10/22 07:16:04;;;;;;;4.55;1.50;;;;;;;13.47;71.69;100293.34;7391656;19;20029;-65
2023/10/22 07:18:31;;;;;;;2.97;0.98;;;;;;;13.51;72.02;100304.53;7390308;19;20027;-66
2023/10/22 07:21:02;;;;;;;3.53;1.05;;;;;;;13.56;71.79;100315.56;7389651;19;20374;-66
2023/10/22 07:23:31;;;;;;;3.88;1.00;;;;;;;13.55;72.25;100314.75;7391650;19;20018;-66
2023/10/22 07:25:59;;;;;;;4.72;1.25;;;;;;;13.57;72.30;100322.56;7391621;19;20018;-65
2023/10/22 07:28:27;;;;;;;3.97;1.02;;;;;;;13.58;72.83;100324.22;7391180;19;20019;-65
2023/10/22 07:30:55;;;;;;;5.32;0.90;;;;;;;13.63;73.27;100329.97;7388438;19;20018;-65
2023/10/22 07:33:24;;;;;;;4.40;1.00;;;;;;;13.59;73.81;100334.75;7392004;19;20019;-65
2023/10/22 07:35:57;;;;;;;3.97;0.90;;;;;;;13.61;74.42;100330.09;7391477;19;20474;-65
2023/10/22 07:38:32;;;;;;;3.03;0.80;;;;;;;13.58;74.78;100335.75;7390815;19;20464;-66
2023/10/22 07:41:00;;;;;;;3.42;0.90;;;;;;;13.48;75.72;100342.06;7390331;19;20022;-66
2023/10/22 07:43:29;;;;;;;3.70;0.95;;;;;;;13.36;76.83;100346.69;7391382;19;20484;-66
2023/10/22 07:46:00;;;;;;;7.00;1.40;;;;;;;13.31;77.37;100354.22;7391395;19;20015;-66
2023/10/22 07:48:28;;;;;;;4.05;0.90;;;;;;;13.22;78.33;100358.53;7390271;19;20030;-65
2023/10/22 07:51:08;;;;;;;4.20;1.20;;;;;;;13.34;78.25;100359.28;7387809;19;20441;-65
2023/10/22 07:53:36;;;;;;;2.92;1.00;;;;;;;13.14;79.61;100359.25;7389429;19;20543;-65
2023/10/22 07:56:05;;;;;;;5.57;1.33;;;;;;;13.18;79.69;100368.63;7390725;19;20114;-65
2023/10/22 07:58:33;;;;;;;4.20;1.30;;;;;;;13.12;80.21;100361.19;7389894;19;20500;-65
2023/10/22 08:01:00;;;;;;;6.65;1.33;;;;;;;13.21;80.12;100361.34;7389912;19;20527;-65
2023/10/22 08:03:29;;;;;;;4.53;1.00;;;;;;;13.21;80.58;100372.81;7390901;19;20680;-65
2023/10/22 08:05:57;;;;;;;6.35;1.15;;;;;;;13.18;80.97;100365.97;7390856;19;20018;-66
2023/10/22 08:08:25;;;;;;;3.03;1.02;;;;;;;13.16;81.31;100375.91;7388277;19;20479;-66
2023/10/22 08:11:01;;;;;;;2.88;1.10;;;;;;;13.16;81.56;100377.69;7389172;19;20027;-66
2023/10/22 08:13:29;;;;;;;4.93;1.10;;;;;;;13.10;81.84;100386.25;7389844;19;20046;-66
2023/10/22 08:15:57;;;;;;;6.47;1.17;;;;;;;13.15;81.98;100382.19;7390114;19;20405;-66
2023/10/22 08:18:24;;;;;;;2.60;1.10;;;;;;;13.19;81.66;100393.38;7389727;19;20022;-66
2023/10/22 08:20:52;;;;;;;3.40;1.10;;;;;;;13.21;81.53;100396.75;7391914;19;20014;-66
2023/10/22 08:23:20;;;;;;;4.00;1.17;;;;;;;13.22;81.58;100398.44;7397330;19;20082;-66
2023/10/22 08:25:52;;;;;;;2.95;1.20;;;;;;;13.17;82.25;100413.97;7397752;19;20405;-67
2023/10/22 08:28:19;;;;;;;4.80;1.15;;;;;;;13.15;82.33;100414.09;7396597;19;20018;-66
2023/10/22 08:30:48;;;;;;;3.80;1.20;;;;;;;13.09;82.59;100419.13;7396601;19;20070;-66
2023/10/22 08:33:16;;;;;;;5.28;1.50;;;;;;;13.11;82.84;100423.31;7397189;19;20415;-66
2023/10/22 08:35:44;;;;;;;5.28;1.20;;;;;;;13.18;82.34;100432.44;7397906;19;20039;-67
2023/10/22 08:38:14;;;;;;;4.32;1.45;;;;;;;13.25;82.40;100432.75;7397095;19;20022;-66
2023/10/22 08:40:43;;;;;;;5.32;1.60;;;;;;;13.26;82.43;100439.75;7392838;19;20023;-66
2023/10/22 08:43:18;;;;;;;3.58;1.60;;;;;;;13.24;82.60;100441.72;7396951;19;20543;-66
2023/10/22 08:45:46;;;;;;;3.47;1.60;;;;;;;13.24;82.97;100449.69;7396386;19;20043;-66
2023/10/22 08:48:15;;;;;;;3.58;1.50;;;;;;;13.23;82.97;100453.31;7396600;19;20022;-66
2023/10/22 08:50:46;;;;;;;2.67;1.30;;;;;;;13.30;82.94;100470.41;7395304;19;20011;-66
2023/10/22 08:53:15;;;;;;;2.67;0.93;;;;;;;13.28;82.82;100466.19;7395484;19;20026;-66
2023/10/22 08:55:48;;;;;;;2.25;0.80;;;;;;;13.27;83.11;100475.16;7397218;19;20013;-66
2023/10/22 08:58:18;;;;;;;3.38;0.90;;;;;;;13.31;82.92;100477.41;7395400;19;20456;-67
2023/10/22 09:00:48;;;;;;;2.85;0.80;;;;;;;13.32;82.92;100487.06;7394576;19;20359;-67
2023/10/22 09:03:18;;;;;;;2.25;0.90;;;;;;;13.32;82.83;100488.91;7397133;19;20082;-67
2023/10/22 09:05:47;;;;;;;1.65;0.95;;;;;;;13.34;82.84;100490.44;7394435;19;20056;-67
2023/10/22 09:08:15;;;;;;;2.05;1.20;;;;;;;13.35;82.52;100502.75;7395288;19;20311;-67
2023/10/22 09:10:43;;;;;;;1.40;1.08;;;;;;;13.34;82.21;100497.56;7394873;19;20051;-67
2023/10/22 09:13:12;;;;;;;4.80;1.20;;;;;;;13.37;81.78;100498.13;7395627;19;20824;-67
2023/10/22 09:15:40;;;;;;;3.58;1.40;;;;;;;13.42;81.38;100516.34;7394229;19;20026;-67
2023/10/22 09:18:08;;;;;;;2.78;1.30;;;;;;;13.46;80.79;100501.78;7393774;19;20017;-66
2023/10/22 09:20:36;;;;;;;2.30;1.20;;;;;;;13.50;80.44;100515.66;7393039;19;20047;-66
2023/10/22 09:23:24;;;;;;;3.97;1.50;;;;;;;13.64;79.56;100516.09;7393995;19;20039;-67
2023/10/22 09:25:56;;;;;;;3.13;1.40;;;;;;;13.58;79.86;100523.78;7395382;19;20078;-67
2023/10/22 09:28:27;;;;;;;4.68;1.50;;;;;;;13.67;79.47;100520.31;7395179;19;20467;-67
2023/10/22 09:31:00;;;;;;;6.50;1.77;;;;;;;13.74;79.21;100520.59;7392560;19;20025;-67
2023/10/22 09:33:30;;;;;;;3.55;1.40;;;;;;;13.79;78.98;100534.31;7395098;19;20038;-67
2023/10/22 09:35:59;;;;;;;4.22;2.00;;;;;;;13.82;79.25;100534.88;7395394;19;20096;-66
2023/10/22 09:38:46;;;;;;;6.05;2.10;;;;;;;13.94;78.60;100537.41;7392197;19;20014;-67
2023/10/22 09:41:22;;;;;;;6.72;2.65;;;;;;;13.88;78.93;100544.94;7391941;19;20026;-66
2023/10/22 09:43:57;;;;;;;6.82;2.30;;;;;;;13.73;79.07;100540.19;7395213;19;20022;-66
2023/10/22 09:46:30;;;;;;;3.95;2.00;;;;;;;13.84;78.53;100546.22;7395351;19;20057;-66
2023/10/22 09:49:03;;;;;;;6.38;2.38;;;;;;;13.84;78.73;100551.53;7393105;19;20018;-66
2023/10/22 09:51:36;;;;;;;4.80;1.95;;;;;;;13.81;78.61;100546.53;7395407;19;20018;-66
2023/10/22 09:54:05;;;;;;;3.67;1.58;;;;;;;13.88;77.98;100539.63;7394509;19;20018;-66
2023/10/22 09:56:53;;;;;;;4.55;1.50;;;;;;;13.97;76.58;100548.63;7393801;19;20078;-66
2023/10/22 09:59:22;;;;;;;3.47;1.10;;;;;;;13.87;77.13;100543.28;7392439;19;20100;-66
2023/10/22 10:01:50;;;;;;;3.72;1.10;;;;;;;13.90;76.08;100552.81;7394946;19;20648;-66
2023/10/22 10:04:20;;;;;;;4.10;1.10;;;;;;;13.89;75.56;100562.63;7394916;19;20014;-66
2023/10/22 10:06:50;;;;;;;3.80;1.23;;;;;;;13.95;75.04;100563.88;7394724;19;20053;-66
2023/10/22 10:09:18;;;;;;;3.92;0.95;;;;;;;13.94;74.19;100559.53;7390130;19;20018;-66
2023/10/22 10:11:47;;;;;;;2.40;0.90;;;;;;;13.98;72.86;100566.28;7394196;19;20478;-66
2023/10/22 10:14:33;;;;;;;2.42;1.00;;;;;;;14.10;70.83;100570.47;7393730;19;20030;-66
2023/10/22 10:17:01;;;;;;;2.05;0.85;;;;;;;14.01;70.80;100573.16;7393904;19;20026;-65
2023/10/22 10:19:30;;;;;;;3.90;0.98;;;;;;;14.10;70.31;100578.47;7390206;19;20098;-65
2023/10/22 10:21:57;;;;;;;4.75;1.20;;;;;;;14.09;70.76;100584.78;7393309;19;20019;-67
2023/10/22 10:24:32;;;;;;;3.47;1.50;;;;;;;14.15;70.91;100586.03;7394421;19;20019;-68
2023/10/22 10:27:00;;;;;;;6.20;1.90;;;;;;;14.20;71.63;100597.13;7393989;19;20022;-67
2023/10/22 10:29:32;;;;;;;4.85;1.83;;;;;;;14.26;72.00;100601.03;7390534;19;20019;-66
2023/10/22 10:32:15;;;;;;;3.78;1.70;;;;;;;14.36;72.37;100600.03;7393236;19;20022;-66
2023/10/22 10:34:46;;;;;;;5.30;1.97;;;;;;;14.41;72.84;100609.44;7392702;19;20027;-67
2023/10/22 10:37:18;;;;;;;4.57;2.17;;;;;;;14.48;73.02;100603.41;7392465;19;20330;-68
2023/10/22 10:39:51;;;;;;;4.70;1.90;;;;;;;14.53;73.39;100616.31;7390622;19;20456;-66
2023/10/22 10:42:28;;;;;;;5.05;2.25;;;;;;;14.59;73.53;100624.59;7392229;19;20026;-66
2023/10/22 10:44:57;;;;;;;5.93;2.10;;;;;;;14.54;74.05;100624.19;7393083;19;20022;-66
2023/10/22 10:47:24;;;;;;;6.15;2.28;;;;;;;14.68;73.86;100622.88;7392702;19;20518;-67
2023/10/22 10:50:05;;;;;;;7.38;2.42;;;;;;;14.79;73.55;100620.06;7389916;19;20034;-66
2023/10/22 10:52:56;;;;;;;5.20;2.05;;;;;;;14.77;73.09;100635.38;7392902;19;20015;-67
2023/10/22 10:55:29;;;;;;;4.80;1.95;;;;;;;14.82;73.32;100635.78;7392652;19;20074;-66
2023/10/22 10:57:57;;;;;;;4.13;1.80;;;;;;;14.89;72.52;100641.38;7391836;19;20030;-67
2023/10/22 11:00:33;;;;;;;4.53;2.15;;;;;;;14.95;71.88;100643.47;7390754;19;20118;-66
2023/10/22 11:03:03;;;;;;;6.00;2.17;;;;;;;15.04;71.65;100644.44;7392445;19;20046;-67
2023/10/22 11:05:37;;;;;;;8.43;3.88;;;;;;;15.13;71.02;100643.56;7392199;19;20014;-67
2023/10/22 11:08:11;;;;;;;4.63;1.40;;;;;;;15.08;70.57;100630.66;7392020;19;20018;-66
2023/10/22 11:10:38;;;;;;;5.82;1.50;;;;;;;15.02;70.42;100639.22;7390714;19;20018;-66
2023/10/22 11:13:08;;;;;;;5.30;1.60;;;;;;;15.01;70.42;100639.38;7390653;19;20397;-66
2023/10/22 11:15:37;;;;;;;4.95;1.38;;;;;;;15.06;70.15;100645.97;7391788;19;20031;-66
2023/10/22 11:18:10;;;;;;;5.13;1.30;;;;;;;15.11;69.92;100645.53;7391675;19;20038;-66
2023/10/22 11:20:41;;;;;;;4.77;1.20;;;;;;;15.01;69.30;100650.91;7390097;19;20019;-66
2023/10/22 11:23:18;;;;;;;;;;;;;;;14.69;67.73;100655.72;7392640;19;20043;-66
2023/10/22 11:25:47;;;;;;;4.20;1.10;;;;;;;14.61;69.68;100656.41;7389779;19;19919;-66
2023/10/22 11:28:15;;;;;;;4.15;1.10;;;;;;;14.66;69.15;100656.84;7391355;19;20094;-66
2023/10/22 11:30:42;;;;;;;3.30;1.20;;;;;;;14.68;68.72;100662.03;7390404;19;20030;-66
2023/10/22 11:33:26;;;;;;;3.10;1.33;;;;;;;14.75;68.45;100664.00;7391605;19;20019;-67